Time;durP1;ratioP1;P1;durP2;ratioP2;P2;SDS_P1;SDS_P2;PMS_P1;PMS_P2;Temp;Humidity;BMP_temperature;BMP_pressure;BME280_temperature;BME280_humidity;BME280_pressure;Samples;Min_cycle;Max_cycle;Signal;HPM_P1;HPM_P2
2023/04/10 00:01:11;;;;;;;30.45;16.77;;;4.40;99.90;;;;;;5083515;28;20068;-88
2023/04/10 00:03:38;;;;;;;27.10;14.73;;;4.60;99.90;;;;;;5057870;28;20037;-88
2023/04/10 00:06:04;;;;;;;27.35;14.90;;;4.60;99.90;;;;;;5073302;28;20028;-88
2023/04/10 00:08:30;;;;;;;28.27;15.90;;;4.60;99.90;;;;;;5082997;28;20036;-89
2023/04/10 00:10:58;;;;;;;27.20;15.05;;;4.50;99.90;;;;;;5083090;28;20040;-89
2023/04/10 00:13:24;;;;;;;29.23;15.65;;;4.40;99.90;;;;;;5082636;28;20032;-89
2023/04/10 00:15:50;;;;;;;30.88;15.57;;;4.30;99.90;;;;;;5070953;28;20057;-89
2023/04/10 00:18:16;;;;;;;28.85;15.77;;;4.30;99.90;;;;;;5082516;28;20032;-89
2023/04/10 00:20:42;;;;;;;22.60;13.50;;;4.50;99.90;;;;;;5065778;28;20430;-88
2023/04/10 00:23:08;;;;;;;23.33;13.40;;;4.70;99.90;;;;;;5065906;28;20115;-89
2023/04/10 00:25:34;;;;;;;23.80;13.35;;;4.80;99.90;;;;;;5066777;28;20094;-89
2023/04/10 00:28:00;;;;;;;25.27;14.77;;;5.00;99.90;;;;;;5060975;28;20017;-82
2023/04/10 00:30:25;;;;;;;25.30;14.23;;;5.00;99.90;;;;;;5060609;28;20074;-81
2023/04/10 00:32:51;;;;;;;25.15;14.43;;;5.10;99.90;;;;;;5060605;28;20017;-82
2023/04/10 00:35:17;;;;;;;24.20;13.48;;;5.00;99.90;;;;;;5086296;28;20032;-82
2023/04/10 00:37:43;;;;;;;20.83;12.35;;;5.00;99.90;;;;;;5056493;28;20025;-82
2023/04/10 00:40:09;;;;;;;26.50;13.80;;;4.90;99.90;;;;;;5077643;28;20027;-82
2023/04/10 00:42:35;;;;;;;24.65;13.25;;;5.00;99.90;;;;;;5077602;28;20357;-81
2023/04/10 00:45:02;;;;;;;26.00;13.75;;;5.00;99.90;;;;;;5061013;28;20429;-82
2023/04/10 00:47:28;;;;;;;28.67;15.98;;;4.80;99.90;;;;;;5069695;28;20008;-82
2023/04/10 00:49:54;;;;;;;26.73;15.15;;;4.70;99.90;;;;;;5062215;28;20039;-82
2023/04/10 00:52:20;;;;;;;26.20;14.65;;;4.70;99.90;;;;;;5060964;28;20028;-81
2023/04/10 00:54:46;;;;;;;22.90;13.15;;;4.70;99.90;;;;;;5077978;28;20372;-82
2023/04/10 00:57:12;;;;;;;23.38;13.95;;;4.70;99.90;;;;;;5057331;28;20032;-82
2023/04/10 00:59:38;;;;;;;28.08;14.13;;;4.60;99.90;;;;;;5057075;28;20035;-82
2023/04/10 01:02:04;;;;;;;23.98;13.90;;;4.50;99.90;;;;;;5056301;28;20028;-82
2023/04/10 01:04:31;;;;;;;26.85;14.07;;;4.40;99.90;;;;;;5057723;28;20040;-82
2023/04/10 01:07:26;;;;;;;25.25;13.77;;;4.30;99.90;;;;;;5057143;28;20035;-82
2023/04/10 01:09:54;;;;;;;27.90;14.63;;;4.20;99.90;;;;;;5057405;28;20371;-82
2023/04/10 01:13:04;;;;;;;26.17;14.90;;;4.20;99.90;;;;;;5090866;28;20361;-82
2023/04/10 01:15:42;;;;;;;25.20;13.82;;;4.20;99.90;;;;;;5067524;28;20438;-82
2023/04/10 01:18:21;;;;;;;23.85;14.15;;;4.00;99.90;;;;;;5055611;28;20075;-82
2023/04/10 01:20:47;;;;;;;24.45;13.27;;;4.00;99.90;;;;;;5057331;28;20078;-82
2023/04/10 01:23:52;;;;;;;24.63;14.20;;;4.10;99.90;;;;;;5056090;28;20021;-82
2023/04/10 01:26:38;;;;;;;26.35;13.65;;;4.10;99.90;;;;;;5073316;28;20040;-82
2023/04/10 01:29:12;;;;;;;23.63;13.88;;;4.20;99.90;;;;;;5056721;28;20027;-82
2023/04/10 01:31:54;;;;;;;24.75;13.63;;;4.30;99.90;;;;;;5056869;28;20166;-82
2023/04/10 01:34:24;;;;;;;25.77;13.43;;;4.20;99.90;;;;;;5073175;28;20071;-82
2023/04/10 01:37:01;;;;;;;28.23;14.33;;;4.10;99.90;;;;;;5090062;28;20035;-82
2023/04/10 01:39:28;;;;;;;22.77;12.15;;;4.00;99.90;;;;;;5056500;28;20275;-82
2023/04/10 01:41:56;;;;;;;23.75;12.57;;;3.80;99.90;;;;;;5055586;28;20036;-82
2023/04/10 01:44:35;;;;;;;26.63;14.60;;;3.80;99.90;;;;;;5058410;28;20480;-82
2023/04/10 01:47:03;;;;;;;25.05;13.02;;;3.70;99.90;;;;;;5055477;28;20032;-82
2023/04/10 01:49:31;;;;;;;24.83;13.32;;;3.80;99.90;;;;;;5056601;28;20024;-82
2023/04/10 01:52:04;;;;;;;23.27;12.98;;;3.80;99.90;;;;;;5056268;28;20048;-82
2023/04/10 01:54:32;;;;;;;21.73;13.02;;;3.80;99.90;;;;;;5056558;28;20119;-82
2023/04/10 01:57:03;;;;;;;23.35;12.95;;;3.70;99.90;;;;;;5056326;28;20036;-82
2023/04/10 01:59:33;;;;;;;24.08;12.73;;;3.60;99.90;;;;;;5073105;28;20402;-82
2023/04/10 02:02:00;;;;;;;23.77;12.60;;;3.70;99.90;;;;;;5072812;28;20074;-82
2023/04/10 02:04:26;;;;;;;22.65;12.63;;;3.70;99.90;;;;;;5056187;28;20474;-82
2023/04/10 02:07:06;;;;;;;22.58;11.13;;;3.80;99.90;;;;;;5055999;28;20020;-82
2023/04/10 02:09:51;;;;;;;20.95;11.85;;;3.70;99.90;;;;;;5063048;28;20032;-81
2023/04/10 02:12:30;;;;;;;22.23;12.40;;;3.80;99.90;;;;;;5063408;28;20032;-81
2023/04/10 02:15:01;;;;;;;21.45;11.93;;;3.90;99.90;;;;;;5080050;28;20024;-82
2023/04/10 02:17:28;;;;;;;24.60;12.07;;;3.90;99.90;;;;;;5072728;28;20446;-82
2023/04/10 02:19:56;;;;;;;20.05;11.63;;;3.80;99.90;;;;;;5055566;28;20365;-82
2023/04/10 02:22:24;;;;;;;21.65;11.38;;;3.80;99.90;;;;;;5072807;28;20416;-81
2023/04/10 02:24:51;;;;;;;22.83;12.82;;;3.90;99.90;;;;;;5055681;28;20051;-81
2023/04/10 02:27:30;;;;;;;22.98;12.07;;;3.80;99.90;;;;;;5055875;28;20025;-82
2023/04/10 02:29:57;;;;;;;20.90;11.82;;;3.70;99.90;;;;;;5050793;28;20540;-82
2023/04/10 02:32:24;;;;;;;23.20;12.45;;;3.70;99.90;;;;;;5073052;28;20029;-82
2023/04/10 02:34:49;;;;;;;21.10;11.38;;;3.70;99.90;;;;;;5056209;28;20036;-82
2023/04/10 02:37:15;;;;;;;22.08;12.88;;;3.70;99.90;;;;;;5072286;28;20019;-82
2023/04/10 02:47:26;;;;;;;21.88;12.05;;;3.80;99.90;;;;;;5073882;28;20130;-82
2023/04/10 02:49:52;;;;;;;20.98;12.25;;;4.10;99.90;;;;;;5055738;28;20077;-82
2023/04/10 02:52:40;;;;;;;25.05;12.50;;;4.20;99.90;;;;;;5054958;28;20037;-82
2023/04/10 02:55:06;;;;;;;21.73;12.10;;;4.20;99.90;;;;;;5055107;28;20031;-82
2023/04/10 02:57:35;;;;;;;23.90;13.27;;;4.20;99.90;;;;;;5071904;28;20020;-82
2023/04/10 03:00:03;;;;;;;21.73;12.05;;;4.10;99.90;;;;;;5072375;28;20035;-82
2023/04/10 03:02:34;;;;;;;25.50;13.38;;;4.20;99.90;;;;;;5056484;28;20154;-82
2023/04/10 03:05:08;;;;;;;22.13;12.23;;;4.20;99.90;;;;;;5071914;28;20023;-82
2023/04/10 03:07:34;;;;;;;21.20;11.90;;;4.30;99.90;;;;;;5055378;28;20024;-82
2023/04/10 03:10:28;;;;;;;23.48;13.00;;;4.30;99.90;;;;;;5076768;28;20025;-82
2023/04/10 03:12:53;;;;;;;24.65;12.68;;;4.20;99.90;;;;;;5073693;28;20033;-82
2023/04/10 03:15:19;;;;;;;22.25;12.45;;;4.20;99.90;;;;;;5055589;28;20025;-82
2023/04/10 03:18:19;;;;;;;21.88;12.85;;;4.30;99.90;;;;;;5071882;28;20032;-83
2023/04/10 03:20:47;;;;;;;22.95;12.18;;;4.30;99.90;;;;;;5070474;28;20028;-83
2023/04/10 03:23:13;;;;;;;18.15;11.48;;;4.20;99.90;;;;;;5055307;28;20535;-82
2023/04/10 03:25:40;;;;;;;23.35;12.40;;;4.40;99.90;;;;;;5056526;28;20028;-82
2023/04/10 03:28:07;;;;;;;20.25;11.68;;;4.30;99.90;;;;;;5075315;28;20099;-81
2023/04/10 03:30:35;;;;;;;21.48;11.75;;;4.30;99.90;;;;;;5075665;28;20062;-82
2023/04/10 03:33:02;;;;;;;23.25;12.32;;;4.40;99.90;;;;;;5075195;28;20025;-82
2023/04/10 03:35:27;;;;;;;20.83;11.93;;;4.40;99.90;;;;;;5075611;28;20472;-81
2023/04/10 03:37:53;;;;;;;25.70;13.18;;;4.40;99.90;;;;;;5058683;28;20039;-82
2023/04/10 03:40:19;;;;;;;22.70;12.48;;;4.40;99.90;;;;;;5058568;28;20048;-82
2023/04/10 03:42:45;;;;;;;26.33;12.43;;;4.40;99.90;;;;;;5058701;28;20017;-81
2023/04/10 03:45:11;;;;;;;20.70;12.18;;;4.40;99.90;;;;;;5075404;28;20090;-81
2023/04/10 03:47:37;;;;;;;21.10;11.65;;;4.40;99.90;;;;;;5058532;28;20418;-82
2023/04/10 03:50:06;;;;;;;23.48;12.63;;;4.30;99.90;;;;;;5059008;28;20540;-82
2023/04/10 03:52:39;;;;;;;19.98;11.60;;;4.40;99.90;;;;;;5059508;28;20021;-81
2023/04/10 03:55:10;;;;;;;21.33;12.85;;;4.40;99.90;;;;;;5059200;28;20033;-82
2023/04/10 03:57:36;;;;;;;19.88;11.32;;;4.50;99.90;;;;;;5074590;28;20033;-82
2023/04/10 04:00:04;;;;;;;22.73;11.52;;;4.60;99.90;;;;;;5058236;28;20452;-81
2023/04/10 04:02:46;;;;;;;22.30;12.23;;;4.70;99.90;;;;;;5075747;28;20033;-82
2023/04/10 04:05:14;;;;;;;20.35;12.23;;;4.60;99.90;;;;;;5058206;28;20033;-81
2023/04/10 04:07:42;;;;;;;23.85;12.88;;;4.50;99.90;;;;;;5058766;28;20491;-81
2023/04/10 04:10:28;;;;;;;23.75;12.48;;;4.60;99.90;;;;;;5061309;28;20024;-81
2023/04/10 04:13:14;;;;;;;27.08;13.10;;;4.50;99.90;;;;;;5033077;28;20461;-82
2023/04/10 04:15:54;;;;;;;21.55;12.27;;;4.60;99.90;;;;;;5057065;28;20032;-81
2023/04/10 04:18:36;;;;;;;24.38;13.63;;;4.50;99.90;;;;;;5060365;28;20055;-82
2023/04/10 04:21:17;;;;;;;23.75;12.43;;;4.40;99.90;;;;;;5074573;28;20024;-82
2023/04/10 04:24:33;;;;;;;24.08;13.18;;;4.40;99.90;;;;;;5074557;28;20020;-82
2023/04/10 04:27:04;;;;;;;23.65;13.05;;;4.30;99.90;;;;;;5058642;28;20496;-81
2023/04/10 04:30:02;;;;;;;23.33;13.13;;;4.40;99.90;;;;;;5052637;28;20028;-82
2023/04/10 04:32:42;;;;;;;25.23;13.23;;;4.30;99.90;;;;;;5074005;28;20680;-81
2023/04/10 04:35:16;;;;;;;24.35;13.05;;;4.40;99.90;;;;;;5074154;28;20036;-82
2023/04/10 04:37:51;;;;;;;26.52;13.65;;;4.30;99.90;;;;;;5058690;28;20111;-82
2023/04/10 04:40:46;;;;;;;26.70;14.48;;;4.30;99.90;;;;;;5074331;28;20024;-82
2023/04/10 04:43:22;;;;;;;27.85;14.73;;;4.20;99.90;;;;;;5072878;28;20471;-82
2023/04/10 04:46:11;;;;;;;25.70;13.52;;;4.10;99.90;;;;;;5046267;28;20028;-85
2023/04/10 04:48:55;;;;;;;26.63;14.38;;;4.00;99.90;;;;;;5075698;28;20035;-86
2023/04/10 04:51:45;;;;;;;23.15;13.50;;;3.90;99.90;;;;;;5087419;28;20035;-85
2023/04/10 04:54:31;;;;;;;28.38;14.38;;;3.90;99.90;;;;;;5067519;28;20379;-86
2023/04/10 04:57:23;;;;;;;32.58;15.25;;;3.80;99.90;;;;;;5085987;28;20025;-85
2023/04/10 05:00:16;;;;;;;28.20;14.98;;;3.70;99.90;;;;;;5061065;28;20363;-86
2023/04/10 05:02:48;;;;;;;28.40;15.20;;;3.70;99.90;;;;;;5075250;28;20040;-85
2023/04/10 05:05:31;;;;;;;28.58;14.98;;;3.70;99.90;;;;;;5058881;28;20024;-86
2023/04/10 05:08:08;;;;;;;28.83;14.98;;;3.80;99.90;;;;;;5058922;28;20024;-85
2023/04/10 05:10:42;;;;;;;30.05;14.60;;;3.80;99.90;;;;;;5073958;28;20024;-85
2023/04/10 05:13:31;;;;;;;30.30;16.23;;;3.80;99.90;;;;;;5055798;28;20131;-86
2023/04/10 05:16:26;;;;;;;27.98;15.80;;;3.90;99.90;;;;;;5061848;28;20116;-86
2023/04/10 05:19:16;;;;;;;27.98;15.30;;;3.90;99.90;;;;;;5060469;28;20439;-85
2023/04/10 05:22:08;;;;;;;28.55;16.33;;;3.90;99.90;;;;;;5074161;28;20020;-85
2023/04/10 05:24:49;;;;;;;32.05;16.17;;;4.00;99.90;;;;;;5074247;28;20353;-86
2023/04/10 05:27:22;;;;;;;32.22;16.15;;;4.10;99.90;;;;;;5059035;28;20029;-85
2023/04/10 05:29:59;;;;;;;31.05;15.93;;;4.10;99.90;;;;;;5074264;28;20052;-86
2023/04/10 05:32:37;;;;;;;29.60;15.48;;;4.30;99.90;;;;;;5073903;28;20029;-85
2023/04/10 05:35:21;;;;;;;30.92;15.93;;;4.30;99.90;;;;;;5074215;28;20035;-85
2023/04/10 05:38:12;;;;;;;34.38;17.23;;;4.40;99.90;;;;;;5060660;28;20035;-86
2023/04/10 05:40:46;;;;;;;27.15;15.45;;;4.50;99.90;;;;;;5053137;28;20064;-85
2023/04/10 05:43:31;;;;;;;32.42;17.13;;;4.60;99.90;;;;;;5077667;28;20548;-86
2023/04/10 05:46:07;;;;;;;31.73;16.23;;;4.70;99.90;;;;;;5057409;28;20031;-85
2023/04/10 05:48:53;;;;;;;27.60;15.90;;;4.80;99.90;;;;;;5071156;28;20086;-86
2023/04/10 05:51:33;;;;;;;27.10;15.32;;;4.80;99.90;;;;;;5074357;28;20463;-85
2023/04/10 05:54:21;;;;;;;29.17;15.68;;;4.90;99.90;;;;;;5069618;28;20051;-86
2023/04/10 05:57:05;;;;;;;25.90;14.38;;;5.00;99.90;;;;;;5063874;28;20036;-85
2023/04/10 05:59:46;;;;;;;28.42;15.93;;;5.10;99.90;;;;;;5069671;28;20032;-84
2023/04/10 06:02:35;;;;;;;27.88;14.30;;;5.20;99.90;;;;;;5056548;28;20111;-86
2023/04/10 06:05:01;;;;;;;27.08;14.50;;;5.30;99.90;;;;;;5062099;28;20060;-86
2023/04/10 06:07:29;;;;;;;27.08;14.45;;;5.40;99.90;;;;;;5056507;28;20111;-85
2023/04/10 06:09:56;;;;;;;25.60;13.70;;;5.40;99.90;;;;;;5064325;28;20497;-84
2023/04/10 06:12:22;;;;;;;22.35;13.10;;;5.50;99.90;;;;;;5055703;28;20024;-85
2023/04/10 06:14:48;;;;;;;25.17;13.70;;;5.60;99.90;;;;;;5045828;28;20020;-85
2023/04/10 06:17:20;;;;;;;28.20;14.10;;;5.60;99.90;;;;;;5055894;28;20380;-85
2023/04/10 06:19:45;;;;;;;23.70;13.45;;;5.70;99.90;;;;;;5050815;28;20028;-86
2023/04/10 06:22:11;;;;;;;24.80;13.85;;;5.80;99.90;;;;;;5052281;28;20082;-86
2023/04/10 06:24:37;;;;;;;24.50;13.38;;;5.80;99.90;;;;;;5069047;28;20063;-85
2023/04/10 06:27:03;;;;;;;25.50;13.88;;;5.90;99.90;;;;;;5048650;28;20137;-86
2023/04/10 06:29:29;;;;;;;23.67;13.85;;;5.90;99.90;;;;;;5040679;28;20036;-85
2023/04/10 06:31:55;;;;;;;24.58;13.55;;;6.00;99.90;;;;;;5066290;28;20023;-85
2023/04/10 06:34:21;;;;;;;24.33;13.23;;;6.00;99.90;;;;;;5063090;28;20017;-85
2023/04/10 06:36:56;;;;;;;24.25;13.23;;;6.00;99.90;;;;;;5042554;28;20033;-86
2023/04/10 06:39:22;;;;;;;25.10;14.90;;;6.10;99.90;;;;;;5047620;28;20476;-85
2023/04/10 06:41:47;;;;;;;23.65;13.68;;;6.10;99.90;;;;;;5068145;28;20031;-86
2023/04/10 06:44:27;;;;;;;23.65;13.15;;;6.10;99.90;;;;;;5054116;28;20024;-85
2023/04/10 06:46:52;;;;;;;25.08;14.10;;;6.20;99.90;;;;;;5044503;28;20032;-86
2023/04/10 06:49:18;;;;;;;25.13;13.95;;;6.20;99.90;;;;;;5049836;28;20025;-86
2023/04/10 06:51:44;;;;;;;24.17;12.20;;;6.30;99.90;;;;;;5062166;28;20032;-86
2023/04/10 06:54:11;;;;;;;22.83;12.45;;;6.50;99.90;;;;;;5065775;28;20033;-85
2023/04/10 06:56:36;;;;;;;21.60;12.88;;;6.60;99.90;;;;;;5064577;28;20044;-86
2023/04/10 06:59:02;;;;;;;22.77;13.02;;;6.70;99.90;;;;;;5065549;28;20037;-86
2023/04/10 07:01:28;;;;;;;24.80;12.07;;;6.80;99.90;;;;;;5056924;28;20032;-85
2023/04/10 07:03:54;;;;;;;26.77;12.60;;;6.90;99.90;;;;;;5072808;28;20036;-85
2023/04/10 07:06:20;;;;;;;23.15;13.30;;;6.90;99.90;;;;;;5069863;28;20546;-85
2023/04/10 07:08:48;;;;;;;21.38;12.00;;;7.00;99.90;;;;;;5056073;28;20060;-86
2023/04/10 07:11:14;;;;;;;22.65;13.00;;;7.00;99.90;;;;;;5056921;28;20530;-86
2023/04/10 07:13:40;;;;;;;25.83;13.48;;;7.20;99.90;;;;;;5057486;28;20071;-86
2023/04/10 07:16:07;;;;;;;24.73;14.07;;;7.30;99.90;;;;;;5076067;28;20036;-85
2023/04/10 07:18:34;;;;;;;19.85;11.82;;;7.30;99.90;;;;;;5074746;28;20028;-85
2023/04/10 07:21:01;;;;;;;21.52;12.10;;;7.40;99.90;;;;;;5063839;28;20032;-85
2023/04/10 07:23:27;;;;;;;23.17;13.55;;;7.40;99.90;;;;;;5067560;28;20057;-86
2023/04/10 07:25:52;;;;;;;20.98;12.68;;;7.40;99.90;;;;;;5068667;28;20051;-86
2023/04/10 07:28:18;;;;;;;21.05;12.05;;;7.50;99.90;;;;;;5070355;28;20021;-86
2023/04/10 07:30:44;;;;;;;22.50;12.75;;;7.60;99.90;;;;;;5051017;28;20392;-85
2023/04/10 07:33:09;;;;;;;20.88;12.23;;;7.70;99.90;;;;;;5066977;28;20200;-85
2023/04/10 07:35:35;;;;;;;19.58;11.50;;;7.80;99.90;;;;;;5046283;28;20464;-86
2023/04/10 07:38:01;;;;;;;22.63;13.32;;;7.90;99.90;;;;;;5051007;28;20027;-86
2023/04/10 07:40:27;;;;;;;20.30;12.38;;;8.00;99.90;;;;;;5052470;28;20448;-86
2023/04/10 07:42:53;;;;;;;20.65;12.05;;;8.10;99.90;;;;;;5050810;28;20028;-86
2023/04/10 07:45:18;;;;;;;24.98;14.40;;;8.20;99.90;;;;;;5061154;28;20029;-85
2023/04/10 07:47:44;;;;;;;19.52;11.18;;;8.30;99.90;;;;;;5080577;28;20024;-85
2023/04/10 07:50:10;;;;;;;18.40;11.35;;;8.40;99.90;;;;;;5057635;28;20029;-86
2023/04/10 07:52:36;;;;;;;19.80;12.10;;;8.60;99.90;;;;;;5055763;28;20021;-86
2023/04/10 07:55:03;;;;;;;17.02;10.80;;;8.70;99.90;;;;;;5047091;28;20032;-85
2023/04/10 07:57:30;;;;;;;16.73;10.63;;;8.80;99.90;;;;;;5054731;28;20649;-86
2023/04/10 07:59:56;;;;;;;20.27;10.45;;;8.90;99.90;;;;;;5064398;28;20036;-86
2023/04/10 08:02:22;;;;;;;19.70;10.68;;;9.00;99.90;;;;;;5074450;28;20388;-85
2023/04/10 08:04:47;;;;;;;16.10;10.60;;;8.90;99.90;;;;;;5072669;28;20029;-86
2023/04/10 08:07:13;;;;;;;16.98;10.45;;;8.90;99.90;;;;;;5075092;28;20125;-86
2023/04/10 08:09:39;;;;;;;15.88;9.80;;;9.00;99.90;;;;;;5073008;28;20024;-86
2023/04/10 08:12:04;;;;;;;18.80;11.00;;;9.10;99.90;;;;;;5068094;28;20112;-86
2023/04/10 08:14:30;;;;;;;17.63;10.70;;;9.10;99.90;;;;;;5073856;28;20025;-86
2023/04/10 08:16:56;;;;;;;19.33;11.23;;;9.10;99.90;;;;;;5054949;28;20115;-86
2023/04/10 08:19:22;;;;;;;17.17;10.25;;;9.10;99.90;;;;;;5058956;28;20033;-85
2023/04/10 08:21:47;;;;;;;18.20;11.07;;;9.20;99.90;;;;;;5057085;28;20028;-86
2023/04/10 08:24:13;;;;;;;16.95;10.38;;;9.20;99.90;;;;;;5058165;28;20033;-85
2023/04/10 08:26:39;;;;;;;15.32;9.32;;;9.40;99.90;;;;;;5060278;28;20021;-86
2023/04/10 08:29:05;;;;;;;18.30;11.45;;;9.50;99.90;;;;;;5057956;28;20029;-86
2023/04/10 08:31:31;;;;;;;17.38;10.40;;;9.60;99.90;;;;;;5061220;28;20386;-86
2023/04/10 08:33:57;;;;;;;19.48;10.82;;;9.70;99.90;;;;;;5059711;28;20025;-85
2023/04/10 08:36:22;;;;;;;16.70;10.05;;;9.70;99.90;;;;;;5076615;28;20536;-86
2023/04/10 08:38:48;;;;;;;16.38;9.50;;;9.80;99.90;;;;;;5058247;28;20127;-85
2023/04/10 08:41:17;;;;;;;15.57;9.40;;;9.80;99.90;;;;;;5082557;28;20024;-86
2023/04/10 08:43:44;;;;;;;14.68;9.55;;;9.90;99.90;;;;;;5076038;28;20085;-86
2023/04/10 08:46:11;;;;;;;14.15;9.38;;;10.00;99.90;;;;;;5091457;28;20078;-86
2023/04/10 08:48:45;;;;;;;14.55;8.98;;;10.00;99.90;;;;;;5077699;28;20097;-86
2023/04/10 08:51:16;;;;;;;17.40;9.98;;;10.10;99.90;;;;;;5074940;28;20090;-85
2023/04/10 08:53:43;;;;;;;13.38;9.20;;;10.20;99.90;;;;;;5058203;28;20073;-86
2023/04/10 08:56:15;;;;;;;14.43;9.23;;;10.30;99.90;;;;;;5074257;28;20039;-86
2023/04/10 08:58:41;;;;;;;14.35;8.68;;;11.20;99.90;;;;;;5057719;28;20044;-85
2023/04/10 09:01:09;;;;;;;15.40;8.82;;;11.80;99.90;;;;;;5074187;28;20042;-85
2023/04/10 09:03:35;;;;;;;13.27;8.70;;;12.20;99.90;;;;;;5072405;28;20035;-87
2023/04/10 09:06:03;;;;;;;11.75;7.88;;;12.60;99.90;;;;;;5060611;28;20467;-87
2023/04/10 09:08:29;;;;;;;13.35;8.82;;;13.10;99.90;;;;;;5057635;28;20052;-87
2023/04/10 09:10:55;;;;;;;9.40;7.28;;;13.80;99.90;;;;;;5074459;28;20036;-87
2023/04/10 09:13:42;;;;;;;11.23;8.00;;;14.30;99.90;;;;;;5056782;28;20033;-87
2023/04/10 09:16:09;;;;;;;12.20;8.30;;;15.00;97.70;;;;;;5057771;28;20047;-86
2023/04/10 09:18:50;;;;;;;12.32;8.40;;;14.50;95.00;;;;;;5073348;28;20032;-86
2023/04/10 09:21:18;;;;;;;9.00;6.80;;;14.30;96.80;;;;;;5073030;28;20033;-87
2023/04/10 09:23:45;;;;;;;12.52;8.85;;;14.80;94.70;;;;;;5055612;28;20379;-86
2023/04/10 09:26:26;;;;;;;10.15;7.72;;;15.10;94.60;;;;;;5056539;28;20115;-87
2023/04/10 09:29:06;;;;;;;11.25;7.90;;;15.20;93.40;;;;;;5056983;28;20063;-87
2023/04/10 09:31:38;;;;;;;11.68;7.78;;;14.90;92.90;;;;;;5073649;28;20040;-86
2023/04/10 09:34:20;;;;;;;10.40;7.47;;;14.40;91.80;;;;;;5057055;28;20120;-88
2023/04/10 09:36:57;;;;;;;10.52;7.57;;;14.20;93.50;;;;;;5090040;28;20035;-87
2023/04/10 09:39:35;;;;;;;11.35;7.90;;;14.10;93.00;;;;;;5073505;28;20036;-87
2023/04/10 09:42:01;;;;;;;11.15;8.20;;;14.00;94.80;;;;;;5055300;28;20029;-86
2023/04/10 09:44:30;;;;;;;9.55;6.78;;;14.30;95.90;;;;;;5072169;28;20471;-86
2023/04/10 09:46:57;;;;;;;13.00;7.88;;;14.20;93.00;;;;;;5073369;28;20025;-87
2023/04/10 09:49:23;;;;;;;11.02;8.20;;;13.80;95.30;;;;;;5073348;28;20024;-87
2023/04/10 09:51:49;;;;;;;13.38;7.97;;;13.90;96.30;;;;;;5056249;28;20161;-87
2023/04/10 09:54:15;;;;;;;10.30;7.75;;;14.20;96.40;;;;;;5073023;28;20537;-86
2023/04/10 09:56:44;;;;;;;11.07;7.97;;;14.50;95.00;;;;;;5056375;28;20028;-87
2023/04/10 09:59:11;;;;;;;11.57;8.20;;;15.00;94.40;;;;;;5073766;28;20048;-88
2023/04/10 10:01:39;;;;;;;10.25;7.60;;;15.20;94.00;;;;;;5053490;28;20032;-87
2023/04/10 10:04:05;;;;;;;10.20;7.50;;;15.10;94.00;;;;;;5088534;28;20368;-86
2023/04/10 10:06:31;;;;;;;13.30;8.00;;;15.10;91.20;;;;;;5085254;28;20047;-87
2023/04/10 10:09:04;;;;;;;9.18;6.57;;;15.30;93.00;;;;;;5088640;28;20023;-87
2023/04/10 10:11:34;;;;;;;12.43;7.90;;;15.70;91.90;;;;;;5073122;28;20036;-87
2023/04/10 10:14:11;;;;;;;11.48;7.97;;;15.60;87.80;;;;;;5065177;28;20113;-87
2023/04/10 10:16:48;;;;;;;8.15;6.85;;;15.30;91.70;;;;;;5096031;28;20031;-87
2023/04/10 10:19:25;;;;;;;9.00;6.78;;;15.90;91.80;;;;;;5058310;28;20372;-86
2023/04/10 10:21:52;;;;;;;15.70;8.27;;;16.20;89.80;;;;;;5069979;28;20035;-87
2023/04/10 10:24:20;;;;;;;8.85;6.70;;;16.30;90.00;;;;;;5070417;28;20037;-86
2023/04/10 10:27:15;;;;;;;8.18;6.05;;;16.50;83.80;;;;;;5076257;28;20055;-87
2023/04/10 10:29:45;;;;;;;9.30;6.82;;;15.80;83.20;;;;;;5073927;28;20039;-87
2023/04/10 10:32:13;;;;;;;8.95;6.65;;;15.30;90.10;;;;;;5053107;28;20025;-86
2023/04/10 10:34:40;;;;;;;8.63;6.38;;;15.10;90.00;;;;;;5074258;28;20027;-86
2023/04/10 10:37:06;;;;;;;8.90;6.18;;;14.90;88.40;;;;;;5061307;28;20029;-87
2023/04/10 10:39:56;;;;;;;8.77;6.82;;;14.80;88.00;;;;;;5068721;28;20033;-86
2023/04/10 10:42:33;;;;;;;8.05;5.88;;;14.80;89.80;;;;;;5074082;28;20093;-87
2023/04/10 10:45:11;;;;;;;7.47;6.03;;;15.10;89.00;;;;;;5077124;28;20025;-87
2023/04/10 10:47:48;;;;;;;6.18;5.05;;;15.60;88.70;;;;;;5076864;28;20067;-87
2023/04/10 10:50:14;;;;;;;7.07;5.68;;;16.10;86.00;;;;;;5059704;28;20491;-87
2023/04/10 10:52:50;;;;;;;7.88;6.05;;;16.10;83.90;;;;;;5093740;28;20033;-87
2023/04/10 10:55:23;;;;;;;7.18;5.63;;;16.10;86.90;;;;;;5076058;28;20032;-86
2023/04/10 10:58:02;;;;;;;8.20;5.30;;;15.60;86.60;;;;;;5059487;28;20029;-87
2023/04/10 11:00:50;;;;;;;6.50;5.35;;;15.70;87.60;;;;;;5076291;28;20043;-87
2023/04/10 11:03:15;;;;;;;6.60;5.35;;;15.80;84.30;;;;;;5060150;28;20383;-87
2023/04/10 11:05:52;;;;;;;7.20;5.80;;;16.00;83.50;;;;;;5060450;28;20017;-87
2023/04/10 11:08:35;;;;;;;7.32;5.32;;;16.50;85.50;;;;;;5072959;28;20024;-87
2023/04/10 11:11:05;;;;;;;11.88;5.60;;;16.30;79.90;;;;;;5060089;28;20093;-87
2023/04/10 11:13:33;;;;;;;6.35;5.15;;;16.10;81.20;;;;;;5076256;28;20039;-87
2023/04/10 11:16:00;;;;;;;7.57;5.25;;;16.30;81.20;;;;;;5059015;28;20029;-87
2023/04/10 11:18:45;;;;;;;6.57;5.28;;;16.90;81.30;;;;;;5092988;28;20067;-87
2023/04/10 11:21:11;;;;;;;6.38;5.07;;;17.10;75.90;;;;;;5058743;28;20466;-86
2023/04/10 11:23:58;;;;;;;6.70;5.35;;;16.80;82.80;;;;;;5076017;28;20028;-86
2023/04/10 11:26:42;;;;;;;7.00;5.13;;;16.90;81.40;;;;;;5074394;28;20127;-87
2023/04/10 11:29:17;;;;;;;8.15;5.78;;;17.20;78.70;;;;;;5075238;28;20375;-87
2023/04/10 11:31:44;;;;;;;7.47;5.22;;;17.00;80.00;;;;;;5075579;28;20060;-87
2023/04/10 11:34:10;;;;;;;5.65;4.60;;;17.30;82.80;;;;;;5076160;28;20059;-87
2023/04/10 11:36:42;;;;;;;7.95;4.75;;;17.80;81.00;;;;;;5077012;28;20078;-87
2023/04/10 11:39:12;;;;;;;5.88;4.70;;;17.20;77.50;;;;;;5059046;28;20051;-87
2023/04/10 11:41:45;;;;;;;6.07;4.90;;;17.40;78.80;;;;;;5075662;28;20090;-87
2023/04/10 11:44:31;;;;;;;5.57;4.72;;;17.60;74.30;;;;;;5059905;28;20029;-87
2023/04/10 11:46:57;;;;;;;6.05;4.57;;;17.00;75.00;;;;;;5074238;28;20541;-87
2023/04/10 11:49:26;;;;;;;5.85;4.55;;;17.40;76.90;;;;;;5075533;28;20028;-87
2023/04/10 11:51:52;;;;;;;6.93;4.70;;;17.80;73.60;;;;;;5059281;28;20086;-87
2023/04/10 11:54:20;;;;;;;4.70;4.15;;;18.10;75.20;;;;;;5075275;28;20033;-87
2023/04/10 11:57:00;;;;;;;10.65;4.55;;;18.60;73.90;;;;;;5053259;28;20032;-87
2023/04/10 11:59:27;;;;;;;4.38;3.78;;;18.90;73.70;;;;;;5075561;28;20039;-87
2023/04/10 12:02:14;;;;;;;6.47;4.82;;;18.70;68.80;;;;;;5075730;28;20039;-86
2023/04/10 12:04:41;;;;;;;4.97;3.88;;;18.50;68.60;;;;;;5058688;28;20277;-87
2023/04/10 12:07:08;;;;;;;9.82;8.80;;;18.70;71.00;;;;;;5070023;28;20028;-87
2023/04/10 12:09:37;;;;;;;5.45;4.40;;;18.80;74.40;;;;;;5075119;28;20032;-86
2023/04/10 12:12:05;;;;;;;5.95;3.97;;;18.70;71.80;;;;;;5075058;28;20017;-88
2023/04/10 12:14:41;;;;;;;5.28;4.35;;;18.70;68.40;;;;;;5058626;28;20086;-87
2023/04/10 12:17:08;;;;;;;3.70;3.05;;;18.50;69.30;;;;;;5078638;28;20104;-87
2023/04/10 12:19:35;;;;;;;4.38;3.25;;;18.70;67.20;;;;;;5066935;28;20513;-87
2023/04/10 12:22:01;;;;;;;3.70;2.85;;;18.70;63.10;;;;;;5065420;28;20036;-86
2023/04/10 12:24:42;;;;;;;3.42;2.28;;;18.60;60.90;;;;;;5068593;28;20028;-87
2023/04/10 12:27:16;;;;;;;3.58;2.95;;;17.70;56.00;;;;;;5053763;28;20024;-87
2023/04/10 12:29:42;;;;;;;3.13;2.47;;;17.40;58.80;;;;;;5059620;28;20370;-86
2023/04/10 12:32:08;;;;;;;2.15;1.90;;;17.10;59.00;;;;;;5052441;28;20080;-87
2023/04/10 12:34:35;;;;;;;3.35;2.20;;;16.60;56.20;;;;;;5054492;28;20028;-87
2023/04/10 12:37:01;;;;;;;3.38;2.63;;;16.70;58.20;;;;;;5069644;28;20497;-87
2023/04/10 12:39:28;;;;;;;8.52;2.40;;;17.10;60.10;;;;;;5052496;28;20078;-87
2023/04/10 12:42:19;;;;;;;4.50;2.55;;;17.40;60.30;;;;;;5062137;28;20029;-86
2023/04/10 12:44:57;;;;;;;2.88;2.10;;;17.20;58.50;;;;;;5064317;28;20028;-87
2023/04/10 12:47:24;;;;;;;4.28;1.90;;;16.80;54.90;;;;;;5078903;28;20039;-87
2023/04/10 12:50:07;;;;;;;2.40;1.80;;;16.90;55.30;;;;;;5052531;28;20033;-87
2023/04/10 12:52:33;;;;;;;2.22;1.88;;;16.90;55.60;;;;;;5063563;28;20067;-88
2023/04/10 12:55:14;;;;;;;1.70;1.50;;;16.80;54.90;;;;;;5050589;28;20025;-87
2023/04/10 12:57:42;;;;;;;2.28;1.63;;;16.80;52.50;;;;;;5064998;28;20067;-86
2023/04/10 13:00:09;;;;;;;2.25;1.60;;;16.80;53.70;;;;;;5066853;28;20379;-86
2023/04/10 13:02:36;;;;;;;2.03;1.60;;;16.70;54.30;;;;;;5065662;28;20035;-87
2023/04/10 13:05:03;;;;;;;3.20;1.50;;;17.00;54.50;;;;;;5057748;28;20024;-87
2023/04/10 13:07:29;;;;;;;2.15;1.65;;;17.10;52.90;;;;;;5065242;28;20056;-87
2023/04/10 13:09:54;;;;;;;2.40;1.70;;;17.30;53.60;;;;;;5043424;28;20021;-87